sensor_id;sensor_type;location;lat;lon;timestamp;P1;durP1;ratioP1;P2;durP2;ratioP2
35056;SDS011;21241;51.828;19.574;2022-11-18T00:01:17;22.60;;;20.90;;
35056;SDS011;21241;51.828;19.574;2022-11-18T00:03:46;22.50;;;20.70;;
35056;SDS011;21241;51.828;19.574;2022-11-18T00:06:15;23.50;;;21.70;;
35056;SDS011;21241;51.828;19.574;2022-11-18T00:08:44;23.90;;;22.10;;
35056;SDS011;21241;51.828;19.574;2022-11-18T00:11:13;23.30;;;21.60;;
35056;SDS011;21241;51.828;19.574;2022-11-18T00:14:03;23.80;;;22.10;;
35056;SDS011;21241;51.828;19.574;2022-11-18T00:16:50;22.90;;;21.10;;
35056;SDS011;21241;51.828;19.574;2022-11-18T00:19:28;23.60;;;21.80;;
35056;SDS011;21241;51.828;19.574;2022-11-18T00:22:06;23.10;;;21.30;;
35056;SDS011;21241;51.828;19.574;2022-11-18T00:24:36;26.20;;;24.20;;
35056;SDS011;21241;51.828;19.574;2022-11-18T00:27:03;23.00;;;21.30;;
35056;SDS011;21241;51.828;19.574;2022-11-18T00:29:31;22.60;;;20.80;;
35056;SDS011;21241;51.828;19.574;2022-11-18T00:31:59;23.10;;;21.30;;
35056;SDS011;21241;51.828;19.574;2022-11-18T00:34:26;22.50;;;20.80;;
35056;SDS011;21241;51.828;19.574;2022-11-18T00:36:54;22.60;;;21.00;;
35056;SDS011;21241;51.828;19.574;2022-11-18T00:39:22;22.80;;;21.10;;
35056;SDS011;21241;51.828;19.574;2022-11-18T00:41:50;22.70;;;21.00;;
35056;SDS011;21241;51.828;19.574;2022-11-18T00:44:36;23.20;;;21.30;;
35056;SDS011;21241;51.828;19.574;2022-11-18T00:47:04;22.80;;;21.00;;
35056;SDS011;21241;51.828;19.574;2022-11-18T00:49:31;22.20;;;20.50;;
35056;SDS011;21241;51.828;19.574;2022-11-18T00:51:59;22.00;;;20.40;;
35056;SDS011;21241;51.828;19.574;2022-11-18T00:54:27;21.50;;;19.90;;
35056;SDS011;21241;51.828;19.574;2022-11-18T00:56:55;22.80;;;21.00;;
35056;SDS011;21241;51.828;19.574;2022-11-18T00:59:23;22.60;;;20.80;;
35056;SDS011;21241;51.828;19.574;2022-11-18T01:01:50;20.90;;;19.30;;
35056;SDS011;21241;51.828;19.574;2022-11-18T01:04:18;20.00;;;18.50;;
35056;SDS011;21241;51.828;19.574;2022-11-18T01:06:46;20.60;;;19.00;;
35056;SDS011;21241;51.828;19.574;2022-11-18T01:09:14;20.70;;;19.00;;
35056;SDS011;21241;51.828;19.574;2022-11-18T01:11:42;21.20;;;19.60;;
35056;SDS011;21241;51.828;19.574;2022-11-18T01:14:28;20.60;;;18.90;;
35056;SDS011;21241;51.828;19.574;2022-11-18T01:16:56;20.80;;;19.00;;
35056;SDS011;21241;51.828;19.574;2022-11-18T01:19:24;19.80;;;18.30;;
35056;SDS011;21241;51.828;19.574;2022-11-18T01:21:52;21.10;;;19.40;;
35056;SDS011;21241;51.828;19.574;2022-11-18T01:24:21;20.60;;;19.00;;
35056;SDS011;21241;51.828;19.574;2022-11-18T01:26:48;21.20;;;19.50;;
35056;SDS011;21241;51.828;19.574;2022-11-18T01:29:16;20.60;;;19.00;;
35056;SDS011;21241;51.828;19.574;2022-11-18T01:31:44;20.60;;;18.90;;
35056;SDS011;21241;51.828;19.574;2022-11-18T01:34:32;21.40;;;19.60;;
35056;SDS011;21241;51.828;19.574;2022-11-18T01:36:59;20.30;;;18.70;;
35056;SDS011;21241;51.828;19.574;2022-11-18T01:39:27;19.80;;;18.30;;
35056;SDS011;21241;51.828;19.574;2022-11-18T01:41:54;20.90;;;19.20;;
35056;SDS011;21241;51.828;19.574;2022-11-18T01:47:21;19.10;;;17.60;;
35056;SDS011;21241;51.828;19.574;2022-11-18T01:49:49;18.80;;;17.30;;
35056;SDS011;21241;51.828;19.574;2022-11-18T01:52:16;19.70;;;18.20;;
35056;SDS011;21241;51.828;19.574;2022-11-18T01:54:46;20.30;;;18.70;;
35056;SDS011;21241;51.828;19.574;2022-11-18T01:57:15;20.00;;;18.40;;
35056;SDS011;21241;51.828;19.574;2022-11-18T01:59:45;18.90;;;17.40;;
35056;SDS011;21241;51.828;19.574;2022-11-18T02:02:15;18.90;;;17.30;;
35056;SDS011;21241;51.828;19.574;2022-11-18T02:04:44;19.50;;;18.00;;
35056;SDS011;21241;51.828;19.574;2022-11-18T02:07:14;19.90;;;18.30;;
35056;SDS011;21241;51.828;19.574;2022-11-18T02:09:43;19.10;;;17.60;;
35056;SDS011;21241;51.828;19.574;2022-11-18T02:12:11;19.40;;;17.90;;
35056;SDS011;21241;51.828;19.574;2022-11-18T02:14:40;19.70;;;18.10;;
35056;SDS011;21241;51.828;19.574;2022-11-18T02:23:30;23.10;;;21.30;;
35056;SDS011;21241;51.828;19.574;2022-11-18T02:29:02;23.40;;;21.50;;
35056;SDS011;21241;51.828;19.574;2022-11-18T02:34:35;28.70;;;26.40;;
35056;SDS011;21241;51.828;19.574;2022-11-18T02:37:24;28.50;;;26.20;;
35056;SDS011;21241;51.828;19.574;2022-11-18T02:40:09;26.30;;;24.10;;
35056;SDS011;21241;51.828;19.574;2022-11-18T02:42:53;26.30;;;24.20;;
35056;SDS011;21241;51.828;19.574;2022-11-18T02:45:27;26.80;;;24.60;;
35056;SDS011;21241;51.828;19.574;2022-11-18T02:47:56;26.70;;;24.60;;
35056;SDS011;21241;51.828;19.574;2022-11-18T02:50:29;27.70;;;25.50;;
35056;SDS011;21241;51.828;19.574;2022-11-18T02:52:58;26.30;;;24.20;;
35056;SDS011;21241;51.828;19.574;2022-11-18T02:55:29;25.60;;;23.60;;
35056;SDS011;21241;51.828;19.574;2022-11-18T02:57:58;25.70;;;23.70;;
35056;SDS011;21241;51.828;19.574;2022-11-18T03:00:27;26.10;;;24.20;;
35056;SDS011;21241;51.828;19.574;2022-11-18T03:02:54;23.90;;;22.00;;
35056;SDS011;21241;51.828;19.574;2022-11-18T03:05:29;24.30;;;22.40;;
35056;SDS011;21241;51.828;19.574;2022-11-18T03:08:04;23.80;;;21.90;;
35056;SDS011;21241;51.828;19.574;2022-11-18T03:10:41;23.50;;;21.60;;
35056;SDS011;21241;51.828;19.574;2022-11-18T03:15:54;25.50;;;23.40;;
35056;SDS011;21241;51.828;19.574;2022-11-18T03:18:38;24.90;;;23.00;;
35056;SDS011;21241;51.828;19.574;2022-11-18T03:21:13;24.90;;;22.90;;
35056;SDS011;21241;51.828;19.574;2022-11-18T03:23:54;25.20;;;23.20;;
35056;SDS011;21241;51.828;19.574;2022-11-18T03:26:28;26.80;;;24.70;;
35056;SDS011;21241;51.828;19.574;2022-11-18T03:31:58;27.70;;;25.50;;
35056;SDS011;21241;51.828;19.574;2022-11-18T03:34:34;27.30;;;25.20;;
35056;SDS011;21241;51.828;19.574;2022-11-18T03:37:08;25.90;;;23.90;;
35056;SDS011;21241;51.828;19.574;2022-11-18T03:39:40;26.00;;;23.90;;
35056;SDS011;21241;51.828;19.574;2022-11-18T03:42:30;27.40;;;25.20;;
35056;SDS011;21241;51.828;19.574;2022-11-18T03:45:24;25.90;;;23.80;;
35056;SDS011;21241;51.828;19.574;2022-11-18T03:48:01;25.00;;;23.10;;
35056;SDS011;21241;51.828;19.574;2022-11-18T03:50:44;24.00;;;22.00;;
35056;SDS011;21241;51.828;19.574;2022-11-18T03:53:15;22.30;;;20.50;;
35056;SDS011;21241;51.828;19.574;2022-11-18T03:55:45;23.00;;;21.20;;
35056;SDS011;21241;51.828;19.574;2022-11-18T03:58:20;22.90;;;21.20;;
35056;SDS011;21241;51.828;19.574;2022-11-18T04:00:51;23.70;;;21.80;;
35056;SDS011;21241;51.828;19.574;2022-11-18T04:03:23;24.30;;;22.40;;
35056;SDS011;21241;51.828;19.574;2022-11-18T04:05:55;24.60;;;22.70;;
35056;SDS011;21241;51.828;19.574;2022-11-18T04:08:28;24.80;;;22.80;;
35056;SDS011;21241;51.828;19.574;2022-11-18T04:11:36;25.10;;;23.10;;
35056;SDS011;21241;51.828;19.574;2022-11-18T04:14:16;28.20;;;25.90;;
35056;SDS011;21241;51.828;19.574;2022-11-18T04:16:47;28.50;;;26.20;;
35056;SDS011;21241;51.828;19.574;2022-11-18T04:19:17;28.60;;;26.30;;
35056;SDS011;21241;51.828;19.574;2022-11-18T04:21:47;30.60;;;28.00;;
35056;SDS011;21241;51.828;19.574;2022-11-18T04:24:15;28.20;;;25.90;;
35056;SDS011;21241;51.828;19.574;2022-11-18T04:26:42;30.20;;;27.70;;
35056;SDS011;21241;51.828;19.574;2022-11-18T04:29:10;30.80;;;28.30;;
35056;SDS011;21241;51.828;19.574;2022-11-18T04:31:37;32.10;;;29.40;;
35056;SDS011;21241;51.828;19.574;2022-11-18T04:34:05;31.60;;;28.90;;
35056;SDS011;21241;51.828;19.574;2022-11-18T04:36:32;32.20;;;29.40;;
35056;SDS011;21241;51.828;19.574;2022-11-18T04:39:00;33.20;;;30.20;;
35056;SDS011;21241;51.828;19.574;2022-11-18T04:41:28;32.20;;;29.50;;
35056;SDS011;21241;51.828;19.574;2022-11-18T04:44:14;36.00;;;32.90;;
35056;SDS011;21241;51.828;19.574;2022-11-18T04:46:42;36.90;;;33.70;;
35056;SDS011;21241;51.828;19.574;2022-11-18T04:49:12;38.50;;;35.00;;
35056;SDS011;21241;51.828;19.574;2022-11-18T04:51:41;39.20;;;35.70;;
35056;SDS011;21241;51.828;19.574;2022-11-18T04:54:10;40.00;;;36.40;;
35056;SDS011;21241;51.828;19.574;2022-11-18T04:56:38;39.30;;;35.80;;
35056;SDS011;21241;51.828;19.574;2022-11-18T04:59:14;40.80;;;37.20;;
35056;SDS011;21241;51.828;19.574;2022-11-18T05:01:43;41.20;;;37.50;;
35056;SDS011;21241;51.828;19.574;2022-11-18T05:04:12;39.00;;;35.50;;
35056;SDS011;21241;51.828;19.574;2022-11-18T05:06:40;37.50;;;34.20;;
35056;SDS011;21241;51.828;19.574;2022-11-18T05:09:08;36.40;;;33.20;;
35056;SDS011;21241;51.828;19.574;2022-11-18T05:11:36;37.50;;;34.00;;
35056;SDS011;21241;51.828;19.574;2022-11-18T05:14:24;36.70;;;33.40;;
35056;SDS011;21241;51.828;19.574;2022-11-18T05:16:53;36.00;;;32.80;;
35056;SDS011;21241;51.828;19.574;2022-11-18T05:19:22;35.80;;;32.50;;
35056;SDS011;21241;51.828;19.574;2022-11-18T05:21:50;34.90;;;31.80;;
35056;SDS011;21241;51.828;19.574;2022-11-18T05:24:17;35.50;;;32.30;;
35056;SDS011;21241;51.828;19.574;2022-11-18T05:26:45;36.50;;;33.00;;
35056;SDS011;21241;51.828;19.574;2022-11-18T05:29:13;37.40;;;34.00;;
35056;SDS011;21241;51.828;19.574;2022-11-18T05:31:40;35.90;;;32.70;;
35056;SDS011;21241;51.828;19.574;2022-11-18T05:34:08;36.40;;;33.10;;
35056;SDS011;21241;51.828;19.574;2022-11-18T05:36:36;37.60;;;34.40;;
35056;SDS011;21241;51.828;19.574;2022-11-18T05:39:03;37.00;;;33.70;;
35056;SDS011;21241;51.828;19.574;2022-11-18T05:41:31;37.50;;;34.20;;
35056;SDS011;21241;51.828;19.574;2022-11-18T05:44:17;34.00;;;30.80;;
35056;SDS011;21241;51.828;19.574;2022-11-18T05:46:45;35.10;;;31.90;;
35056;SDS011;21241;51.828;19.574;2022-11-18T05:49:12;35.20;;;32.10;;
35056;SDS011;21241;51.828;19.574;2022-11-18T05:51:40;33.70;;;30.80;;
35056;SDS011;21241;51.828;19.574;2022-11-18T05:54:08;32.80;;;29.80;;
35056;SDS011;21241;51.828;19.574;2022-11-18T05:56:40;33.60;;;30.60;;
35056;SDS011;21241;51.828;19.574;2022-11-18T05:59:11;34.90;;;31.80;;
35056;SDS011;21241;51.828;19.574;2022-11-18T06:01:42;34.00;;;30.90;;
35056;SDS011;21241;51.828;19.574;2022-11-18T06:04:59;34.40;;;31.30;;
35056;SDS011;21241;51.828;19.574;2022-11-18T06:07:48;33.30;;;30.20;;
35056;SDS011;21241;51.828;19.574;2022-11-18T06:10:00;31.30;;;28.30;;
35056;SDS011;21241;51.828;19.574;2022-11-18T06:12:34;31.30;;;28.60;;
35056;SDS011;21241;51.828;19.574;2022-11-18T06:15:07;32.90;;;29.90;;
35056;SDS011;21241;51.828;19.574;2022-11-18T06:17:46;30.80;;;28.00;;
35056;SDS011;21241;51.828;19.574;2022-11-18T06:20:20;29.90;;;27.30;;
35056;SDS011;21241;51.828;19.574;2022-11-18T06:22:48;28.60;;;26.10;;
35056;SDS011;21241;51.828;19.574;2022-11-18T06:25:17;26.30;;;23.90;;
35056;SDS011;21241;51.828;19.574;2022-11-18T06:27:46;24.60;;;22.40;;
35056;SDS011;21241;51.828;19.574;2022-11-18T06:30:14;24.90;;;22.80;;
35056;SDS011;21241;51.828;19.574;2022-11-18T06:32:42;25.30;;;23.10;;
35056;SDS011;21241;51.828;19.574;2022-11-18T06:35:09;24.30;;;22.20;;
35056;SDS011;21241;51.828;19.574;2022-11-18T06:37:37;23.60;;;21.60;;
35056;SDS011;21241;51.828;19.574;2022-11-18T06:40:05;22.20;;;20.30;;
35056;SDS011;21241;51.828;19.574;2022-11-18T06:42:33;24.50;;;22.40;;
35056;SDS011;21241;51.828;19.574;2022-11-18T06:45:19;24.80;;;22.60;;
35056;SDS011;21241;51.828;19.574;2022-11-18T06:47:47;23.40;;;21.30;;
35056;SDS011;21241;51.828;19.574;2022-11-18T06:50:15;23.40;;;21.40;;
35056;SDS011;21241;51.828;19.574;2022-11-18T06:52:43;24.70;;;22.60;;
35056;SDS011;21241;51.828;19.574;2022-11-18T06:55:10;24.90;;;22.90;;
35056;SDS011;21241;51.828;19.574;2022-11-18T06:57:38;25.60;;;23.40;;
35056;SDS011;21241;51.828;19.574;2022-11-18T07:00:06;25.40;;;23.30;;
35056;SDS011;21241;51.828;19.574;2022-11-18T07:02:37;25.10;;;23.00;;
35056;SDS011;21241;51.828;19.574;2022-11-18T07:05:05;25.50;;;23.40;;
35056;SDS011;21241;51.828;19.574;2022-11-18T07:07:35;26.80;;;24.60;;
35056;SDS011;21241;51.828;19.574;2022-11-18T07:10:08;27.30;;;25.00;;
35056;SDS011;21241;51.828;19.574;2022-11-18T07:12:36;27.60;;;25.30;;
35056;SDS011;21241;51.828;19.574;2022-11-18T07:15:04;28.00;;;25.60;;
35056;SDS011;21241;51.828;19.574;2022-11-18T07:17:32;26.90;;;24.70;;
35056;SDS011;21241;51.828;19.574;2022-11-18T07:19:59;25.00;;;22.90;;
35056;SDS011;21241;51.828;19.574;2022-11-18T07:22:27;22.30;;;20.50;;
35056;SDS011;21241;51.828;19.574;2022-11-18T07:24:55;22.80;;;20.90;;
35056;SDS011;21241;51.828;19.574;2022-11-18T07:27:23;23.40;;;21.40;;
35056;SDS011;21241;51.828;19.574;2022-11-18T07:29:50;20.90;;;19.20;;
35056;SDS011;21241;51.828;19.574;2022-11-18T07:32:18;18.50;;;17.10;;
35056;SDS011;21241;51.828;19.574;2022-11-18T07:34:45;17.40;;;16.00;;
35056;SDS011;21241;51.828;19.574;2022-11-18T07:37:13;18.10;;;16.60;;
35056;SDS011;21241;51.828;19.574;2022-11-18T07:39:40;15.70;;;14.50;;
35056;SDS011;21241;51.828;19.574;2022-11-18T07:42:08;14.50;;;13.40;;
35056;SDS011;21241;51.828;19.574;2022-11-18T07:44:36;13.40;;;12.30;;
35056;SDS011;21241;51.828;19.574;2022-11-18T07:47:03;11.80;;;10.90;;
35056;SDS011;21241;51.828;19.574;2022-11-18T07:49:31;11.20;;;10.30;;
35056;SDS011;21241;51.828;19.574;2022-11-18T07:51:59;9.40;;;8.70;;
35056;SDS011;21241;51.828;19.574;2022-11-18T07:54:26;9.10;;;8.40;;
35056;SDS011;21241;51.828;19.574;2022-11-18T07:56:54;9.00;;;8.30;;
35056;SDS011;21241;51.828;19.574;2022-11-18T07:59:22;9.00;;;8.20;;
35056;SDS011;21241;51.828;19.574;2022-11-18T08:01:49;10.10;;;9.30;;
35056;SDS011;21241;51.828;19.574;2022-11-18T08:04:17;9.90;;;9.10;;
35056;SDS011;21241;51.828;19.574;2022-11-18T08:06:45;9.60;;;8.80;;
35056;SDS011;21241;51.828;19.574;2022-11-18T08:09:12;9.30;;;8.60;;
35056;SDS011;21241;51.828;19.574;2022-11-18T08:11:40;10.20;;;9.40;;
35056;SDS011;21241;51.828;19.574;2022-11-18T08:14:07;10.50;;;9.60;;
35056;SDS011;21241;51.828;19.574;2022-11-18T08:16:35;10.40;;;9.60;;
35056;SDS011;21241;51.828;19.574;2022-11-18T08:19:03;10.10;;;9.30;;
35056;SDS011;21241;51.828;19.574;2022-11-18T08:21:30;9.50;;;8.70;;
35056;SDS011;21241;51.828;19.574;2022-11-18T08:23:58;10.30;;;9.50;;
35056;SDS011;21241;51.828;19.574;2022-11-18T08:26:25;9.90;;;9.10;;
35056;SDS011;21241;51.828;19.574;2022-11-18T08:28:54;10.20;;;9.30;;
35056;SDS011;21241;51.828;19.574;2022-11-18T08:31:23;10.00;;;9.20;;
35056;SDS011;21241;51.828;19.574;2022-11-18T08:33:55;12.00;;;11.00;;
35056;SDS011;21241;51.828;19.574;2022-11-18T08:36:28;10.30;;;9.40;;
35056;SDS011;21241;51.828;19.574;2022-11-18T08:38:58;10.40;;;9.60;;
35056;SDS011;21241;51.828;19.574;2022-11-18T08:41:30;10.60;;;9.80;;
35056;SDS011;21241;51.828;19.574;2022-11-18T08:44:03;9.10;;;8.40;;
35056;SDS011;21241;51.828;19.574;2022-11-18T08:46:32;8.60;;;7.90;;
35056;SDS011;21241;51.828;19.574;2022-11-18T08:49:00;9.00;;;8.20;;
35056;SDS011;21241;51.828;19.574;2022-11-18T08:51:27;8.90;;;8.20;;
35056;SDS011;21241;51.828;19.574;2022-11-18T08:53:55;8.40;;;7.70;;
35056;SDS011;21241;51.828;19.574;2022-11-18T08:56:24;7.90;;;7.20;;
35056;SDS011;21241;51.828;19.574;2022-11-18T08:58:52;6.60;;;6.10;;
35056;SDS011;21241;51.828;19.574;2022-11-18T09:01:20;7.40;;;6.80;;
35056;SDS011;21241;51.828;19.574;2022-11-18T09:03:49;7.10;;;6.50;;
35056;SDS011;21241;51.828;19.574;2022-11-18T09:06:17;8.20;;;7.50;;
35056;SDS011;21241;51.828;19.574;2022-11-18T09:08:47;8.80;;;8.10;;
35056;SDS011;21241;51.828;19.574;2022-11-18T09:11:18;7.70;;;7.00;;
35056;SDS011;21241;51.828;19.574;2022-11-18T09:13:50;7.50;;;6.90;;
35056;SDS011;21241;51.828;19.574;2022-11-18T09:16:39;6.20;;;5.80;;
35056;SDS011;21241;51.828;19.574;2022-11-18T09:19:06;6.10;;;5.60;;
35056;SDS011;21241;51.828;19.574;2022-11-18T09:21:54;6.50;;;6.00;;
35056;SDS011;21241;51.828;19.574;2022-11-18T09:24:22;5.60;;;5.20;;
35056;SDS011;21241;51.828;19.574;2022-11-18T09:26:49;7.00;;;6.40;;
35056;SDS011;21241;51.828;19.574;2022-11-18T09:29:17;7.00;;;6.50;;
35056;SDS011;21241;51.828;19.574;2022-11-18T09:31:46;5.90;;;5.40;;
35056;SDS011;21241;51.828;19.574;2022-11-18T09:34:13;6.60;;;6.10;;
35056;SDS011;21241;51.828;19.574;2022-11-18T09:36:42;7.40;;;6.80;;
35056;SDS011;21241;51.828;19.574;2022-11-18T09:39:09;6.90;;;6.30;;
35056;SDS011;21241;51.828;19.574;2022-11-18T09:41:47;7.50;;;6.90;;
35056;SDS011;21241;51.828;19.574;2022-11-18T09:47:24;7.40;;;6.80;;
35056;SDS011;21241;51.828;19.574;2022-11-18T09:49:57;8.00;;;7.30;;
35056;SDS011;21241;51.828;19.574;2022-11-18T09:55:58;10.00;;;9.20;;
35056;SDS011;21241;51.828;19.574;2022-11-18T10:01:01;9.90;;;9.10;;
35056;SDS011;21241;51.828;19.574;2022-11-18T10:03:30;10.40;;;9.60;;
35056;SDS011;21241;51.828;19.574;2022-11-18T10:11:18;10.10;;;9.30;;
35056;SDS011;21241;51.828;19.574;2022-11-18T10:22:31;10.60;;;9.80;;
35056;SDS011;21241;51.828;19.574;2022-11-18T10:25:00;8.30;;;7.70;;
35056;SDS011;21241;51.828;19.574;2022-11-18T10:27:36;8.70;;;8.00;;
35056;SDS011;21241;51.828;19.574;2022-11-18T10:30:13;8.10;;;7.50;;
35056;SDS011;21241;51.828;19.574;2022-11-18T10:35:44;7.90;;;7.30;;
35056;SDS011;21241;51.828;19.574;2022-11-18T10:40:43;8.30;;;7.70;;
35056;SDS011;21241;51.828;19.574;2022-11-18T10:43:13;8.10;;;7.50;;
35056;SDS011;21241;51.828;19.574;2022-11-18T10:46:25;7.70;;;7.10;;
35056;SDS011;21241;51.828;19.574;2022-11-18T10:51:37;7.70;;;7.10;;
35056;SDS011;21241;51.828;19.574;2022-11-18T10:54:08;7.50;;;6.90;;
35056;SDS011;21241;51.828;19.574;2022-11-18T10:59:32;8.00;;;7.40;;
35056;SDS011;21241;51.828;19.574;2022-11-18T11:05:00;7.30;;;6.70;;
35056;SDS011;21241;51.828;19.574;2022-11-18T11:07:31;7.90;;;7.30;;
35056;SDS011;21241;51.828;19.574;2022-11-18T11:12:33;7.60;;;7.00;;
35056;SDS011;21241;51.828;19.574;2022-11-18T11:15:14;7.70;;;7.10;;
35056;SDS011;21241;51.828;19.574;2022-11-18T11:17:46;7.80;;;7.20;;
35056;SDS011;21241;51.828;19.574;2022-11-18T11:20:37;7.20;;;6.60;;
35056;SDS011;21241;51.828;19.574;2022-11-18T11:23:09;7.40;;;6.80;;
35056;SDS011;21241;51.828;19.574;2022-11-18T11:28:46;6.40;;;5.90;;
35056;SDS011;21241;51.828;19.574;2022-11-18T11:31:21;5.80;;;5.40;;
35056;SDS011;21241;51.828;19.574;2022-11-18T11:36:58;7.10;;;6.60;;
35056;SDS011;21241;51.828;19.574;2022-11-18T11:39:36;8.60;;;7.90;;
35056;SDS011;21241;51.828;19.574;2022-11-18T11:47:28;8.30;;;7.60;;
35056;SDS011;21241;51.828;19.574;2022-11-18T11:54:27;7.90;;;7.30;;
35056;SDS011;21241;51.828;19.574;2022-11-18T11:57:32;8.30;;;7.60;;
35056;SDS011;21241;51.828;19.574;2022-11-18T12:00:11;8.20;;;7.60;;
35056;SDS011;21241;51.828;19.574;2022-11-18T12:02:48;10.20;;;9.40;;
35056;SDS011;21241;51.828;19.574;2022-11-18T12:08:08;9.80;;;9.00;;
35056;SDS011;21241;51.828;19.574;2022-11-18T12:10:50;10.40;;;9.60;;
35056;SDS011;21241;51.828;19.574;2022-11-18T12:13:42;12.00;;;10.80;;
35056;SDS011;21241;51.828;19.574;2022-11-18T12:16:36;10.30;;;9.50;;
35056;SDS011;21241;51.828;19.574;2022-11-18T12:24:22;12.00;;;11.00;;
35056;SDS011;21241;51.828;19.574;2022-11-18T12:29:36;10.10;;;9.30;;
35056;SDS011;21241;51.828;19.574;2022-11-18T12:37:58;11.40;;;10.40;;
35056;SDS011;21241;51.828;19.574;2022-11-18T12:44:05;12.50;;;11.50;;
35056;SDS011;21241;51.828;19.574;2022-11-18T12:46:58;11.70;;;10.80;;
35056;SDS011;21241;51.828;19.574;2022-11-18T12:51:49;13.10;;;11.90;;
35056;SDS011;21241;51.828;19.574;2022-11-18T12:54:23;12.60;;;11.40;;
35056;SDS011;21241;51.828;19.574;2022-11-18T12:56:54;12.90;;;11.90;;
35056;SDS011;21241;51.828;19.574;2022-11-18T12:59:34;12.70;;;11.70;;
35056;SDS011;21241;51.828;19.574;2022-11-18T13:04:37;14.00;;;12.80;;
35056;SDS011;21241;51.828;19.574;2022-11-18T13:07:12;12.50;;;11.50;;
35056;SDS011;21241;51.828;19.574;2022-11-18T13:10:15;13.30;;;12.10;;
35056;SDS011;21241;51.828;19.574;2022-11-18T13:12:47;12.70;;;11.60;;
35056;SDS011;21241;51.828;19.574;2022-11-18T13:15:15;11.70;;;10.70;;
35056;SDS011;21241;51.828;19.574;2022-11-18T13:18:20;11.70;;;10.70;;
35056;SDS011;21241;51.828;19.574;2022-11-18T13:20:58;11.40;;;10.50;;
35056;SDS011;21241;51.828;19.574;2022-11-18T13:23:46;10.70;;;9.90;;
35056;SDS011;21241;51.828;19.574;2022-11-18T13:26:29;10.50;;;9.70;;
35056;SDS011;21241;51.828;19.574;2022-11-18T13:31:46;9.70;;;9.00;;
35056;SDS011;21241;51.828;19.574;2022-11-18T13:34:24;9.70;;;8.90;;
35056;SDS011;21241;51.828;19.574;2022-11-18T13:36:54;9.80;;;9.00;;
35056;SDS011;21241;51.828;19.574;2022-11-18T13:39:24;10.10;;;9.30;;
35056;SDS011;21241;51.828;19.574;2022-11-18T13:42:37;9.30;;;8.50;;
35056;SDS011;21241;51.828;19.574;2022-11-18T13:44:52;9.60;;;8.80;;
35056;SDS011;21241;51.828;19.574;2022-11-18T13:47:35;9.90;;;9.10;;
35056;SDS011;21241;51.828;19.574;2022-11-18T13:55:54;10.80;;;10.00;;
35056;SDS011;21241;51.828;19.574;2022-11-18T13:58:30;9.20;;;8.40;;
35056;SDS011;21241;51.828;19.574;2022-11-18T14:03:49;9.20;;;8.40;;
35056;SDS011;21241;51.828;19.574;2022-11-18T14:09:27;7.90;;;7.30;;
35056;SDS011;21241;51.828;19.574;2022-11-18T14:11:58;7.90;;;7.20;;
35056;SDS011;21241;51.828;19.574;2022-11-18T14:14:31;7.10;;;6.60;;
35056;SDS011;21241;51.828;19.574;2022-11-18T14:19:45;6.70;;;6.20;;
35056;SDS011;21241;51.828;19.574;2022-11-18T14:22:19;6.90;;;6.40;;
35056;SDS011;21241;51.828;19.574;2022-11-18T14:24:58;6.80;;;6.20;;
35056;SDS011;21241;51.828;19.574;2022-11-18T14:27:40;7.40;;;6.80;;
35056;SDS011;21241;51.828;19.574;2022-11-18T14:30:37;7.40;;;6.70;;
35056;SDS011;21241;51.828;19.574;2022-11-18T14:36:30;6.80;;;6.30;;
35056;SDS011;21241;51.828;19.574;2022-11-18T14:41:36;7.60;;;6.90;;
35056;SDS011;21241;51.828;19.574;2022-11-18T14:44:16;9.20;;;8.40;;
35056;SDS011;21241;51.828;19.574;2022-11-18T14:46:46;8.70;;;7.90;;
35056;SDS011;21241;51.828;19.574;2022-11-18T14:49:16;8.60;;;7.90;;
35056;SDS011;21241;51.828;19.574;2022-11-18T14:51:46;9.00;;;8.30;;
35056;SDS011;21241;51.828;19.574;2022-11-18T14:54:14;8.80;;;8.00;;
35056;SDS011;21241;51.828;19.574;2022-11-18T14:56:52;8.60;;;7.90;;
35056;SDS011;21241;51.828;19.574;2022-11-18T14:59:22;10.60;;;9.70;;
35056;SDS011;21241;51.828;19.574;2022-11-18T15:01:49;9.60;;;8.80;;
35056;SDS011;21241;51.828;19.574;2022-11-18T15:04:17;9.10;;;8.20;;
35056;SDS011;21241;51.828;19.574;2022-11-18T15:06:47;10.60;;;9.70;;
35056;SDS011;21241;51.828;19.574;2022-11-18T15:09:15;12.10;;;11.00;;
35056;SDS011;21241;51.828;19.574;2022-11-18T15:11:43;10.90;;;10.00;;
35056;SDS011;21241;51.828;19.574;2022-11-18T15:14:11;9.50;;;8.70;;
35056;SDS011;21241;51.828;19.574;2022-11-18T15:16:38;10.70;;;9.70;;
35056;SDS011;21241;51.828;19.574;2022-11-18T15:19:08;11.10;;;10.10;;
35056;SDS011;21241;51.828;19.574;2022-11-18T15:21:39;7.90;;;7.20;;
35056;SDS011;21241;51.828;19.574;2022-11-18T15:24:07;9.50;;;8.60;;
35056;SDS011;21241;51.828;19.574;2022-11-18T15:26:36;11.20;;;10.10;;
35056;SDS011;21241;51.828;19.574;2022-11-18T15:29:05;13.00;;;11.60;;
35056;SDS011;21241;51.828;19.574;2022-11-18T15:31:45;10.40;;;9.40;;
35056;SDS011;21241;51.828;19.574;2022-11-18T15:34:13;8.20;;;7.50;;
35056;SDS011;21241;51.828;19.574;2022-11-18T15:36:42;8.30;;;7.60;;
35056;SDS011;21241;51.828;19.574;2022-11-18T15:39:10;7.90;;;7.20;;
35056;SDS011;21241;51.828;19.574;2022-11-18T15:41:39;9.00;;;8.10;;
35056;SDS011;21241;51.828;19.574;2022-11-18T15:44:08;9.10;;;8.20;;
35056;SDS011;21241;51.828;19.574;2022-11-18T15:46:36;9.20;;;8.30;;
35056;SDS011;21241;51.828;19.574;2022-11-18T15:49:04;10.40;;;9.50;;
35056;SDS011;21241;51.828;19.574;2022-11-18T15:51:35;9.10;;;8.30;;
35056;SDS011;21241;51.828;19.574;2022-11-18T15:54:03;9.70;;;8.90;;
35056;SDS011;21241;51.828;19.574;2022-11-18T15:56:31;9.70;;;8.80;;
35056;SDS011;21241;51.828;19.574;2022-11-18T15:59:06;8.70;;;8.00;;
35056;SDS011;21241;51.828;19.574;2022-11-18T16:01:37;9.60;;;8.80;;
35056;SDS011;21241;51.828;19.574;2022-11-18T16:04:09;10.30;;;9.40;;
35056;SDS011;21241;51.828;19.574;2022-11-18T16:06:38;10.30;;;9.20;;
35056;SDS011;21241;51.828;19.574;2022-11-18T16:09:05;10.10;;;9.20;;
35056;SDS011;21241;51.828;19.574;2022-11-18T16:11:33;11.30;;;10.30;;
35056;SDS011;21241;51.828;19.574;2022-11-18T16:14:20;10.70;;;9.80;;
35056;SDS011;21241;51.828;19.574;2022-11-18T16:16:50;12.30;;;11.10;;
35056;SDS011;21241;51.828;19.574;2022-11-18T16:19:21;12.90;;;11.80;;
35056;SDS011;21241;51.828;19.574;2022-11-18T16:21:52;12.00;;;10.90;;
35056;SDS011;21241;51.828;19.574;2022-11-18T16:24:23;13.00;;;11.90;;
35056;SDS011;21241;51.828;19.574;2022-11-18T16:26:52;11.90;;;10.90;;
35056;SDS011;21241;51.828;19.574;2022-11-18T16:29:21;12.50;;;11.50;;
35056;SDS011;21241;51.828;19.574;2022-11-18T16:31:50;13.60;;;12.50;;
35056;SDS011;21241;51.828;19.574;2022-11-18T16:34:23;13.90;;;12.60;;
35056;SDS011;21241;51.828;19.574;2022-11-18T16:36:53;13.50;;;12.40;;
35056;SDS011;21241;51.828;19.574;2022-11-18T16:39:23;13.50;;;12.40;;
35056;SDS011;21241;51.828;19.574;2022-11-18T16:41:53;14.60;;;13.30;;
35056;SDS011;21241;51.828;19.574;2022-11-18T16:44:28;14.80;;;13.50;;
35056;SDS011;21241;51.828;19.574;2022-11-18T16:46:56;15.30;;;14.00;;
35056;SDS011;21241;51.828;19.574;2022-11-18T16:49:24;17.60;;;16.00;;
35056;SDS011;21241;51.828;19.574;2022-11-18T16:51:53;16.00;;;14.60;;